Time;durP1;ratioP1;P1;durP2;ratioP2;P2;SDS_P1;SDS_P2;PMS_P1;PMS_P2;Temp;Humidity;BMP_temperature;BMP_pressure;BME280_temperature;BME280_humidity;BME280_pressure;Samples;Min_cycle;Max_cycle;Signal;HPM_P1;HPM_P2
2022/08/07 00:01:08;;;;;;;2.80;1.70;;;;;;;-140.72;100.00;52405.06;5034038;28;20481;-67
2022/08/07 00:03:33;;;;;;;3.95;1.98;;;;;;;-140.72;100.00;52421.28;5034281;28;20056;-66
2022/08/07 00:05:59;;;;;;;2.20;1.60;;;;;;;-140.72;100.00;52398.97;5035980;28;20040;-66
2022/08/07 00:08:24;;;;;;;1.88;1.30;;;;;;;-140.72;100.00;52407.09;5035988;28;20030;-66
2022/08/07 00:10:51;;;;;;;2.00;1.40;;;;;;;-140.72;100.00;52435.50;5029515;28;20510;-66
2022/08/07 00:13:18;;;;;;;2.42;1.75;;;;;;;-140.72;100.00;52415.22;5017370;28;20018;-64
2022/08/07 00:15:44;;;;;;;2.30;1.83;;;;;;;-140.72;100.00;52425.34;5036021;28;20040;-66
2022/08/07 00:18:09;;;;;;;2.10;1.60;;;;;;;-140.72;100.00;52417.25;5031778;28;20022;-66
2022/08/07 00:20:37;;;;;;;3.08;1.83;;;;;;;-140.72;100.00;52433.47;5035591;28;20060;-65
2022/08/07 00:23:06;;;;;;;3.28;2.28;;;;;;;-140.72;100.00;52417.25;5033850;28;20451;-66
2022/08/07 00:25:32;;;;;;;3.72;2.55;;;;;;;-140.72;100.00;52415.22;5035032;28;20484;-67
2022/08/07 00:27:58;;;;;;;2.15;1.58;;;;;;;-140.72;100.00;52431.44;5035573;28;20057;-66
2022/08/07 00:30:24;;;;;;;3.63;2.17;;;;;;;-140.72;100.00;52411.16;5031473;28;20047;-65
2022/08/07 00:32:49;;;;;;;4.63;2.50;;;;;;;-140.72;100.00;52411.16;5030020;28;20041;-67
2022/08/07 00:35:17;;;;;;;2.65;1.65;;;;;;;-140.72;100.00;52398.97;5026698;28;20021;-66
2022/08/07 00:37:44;;;;;;;4.15;1.92;;;;;;;-140.72;100.00;52423.31;5028084;28;20133;-66
2022/08/07 00:40:11;;;;;;;3.45;2.25;;;;;;;-140.72;100.00;52463.91;5035717;28;20041;-66
2022/08/07 00:42:36;;;;;;;3.03;2.00;;;;;;;-140.72;100.00;52409.13;5033601;28;20095;-65
2022/08/07 00:45:03;;;;;;;2.75;1.77;;;;;;;-140.72;100.00;52405.06;5029123;28;20033;-65
2022/08/07 00:47:29;;;;;;;2.50;1.75;;;;;;;-140.72;100.00;52419.28;5026870;28;20060;-65
2022/08/07 00:49:55;;;;;;;4.90;2.63;;;;;;;-140.72;100.00;52419.28;5022544;28;20120;-66
2022/08/07 00:52:20;;;;;;;2.78;2.00;;;;;;;-140.72;100.00;52453.75;5021386;28;20022;-66
2022/08/07 00:54:47;;;;;;;2.63;1.70;;;;;;;-140.72;100.00;52435.50;5015774;28;20121;-66
2022/08/07 00:57:12;;;;;;;1.85;1.40;;;;;;;-140.72;100.00;52453.75;5031531;28;20018;-65
2022/08/07 00:59:38;;;;;;;5.15;1.65;;;;;;;-140.72;100.00;52423.31;5034819;28;20415;-66
2022/08/07 01:02:07;;;;;;;4.07;2.28;;;;;;;-140.72;100.00;52453.75;5029793;28;20041;-65
2022/08/07 01:04:33;;;;;;;2.47;1.83;;;;;;;-140.72;100.00;52435.50;5015780;28;20026;-65
2022/08/07 01:07:00;;;;;;;3.90;2.10;;;;;;;-140.72;100.00;52474.06;5020228;28;20060;-65
2022/08/07 01:09:25;;;;;;;3.25;1.52;;;;;;;-140.72;100.00;52429.41;5031710;28;20127;-66
2022/08/07 01:11:51;;;;;;;2.78;1.58;;;;;;;-140.72;100.00;52443.63;5021025;28;20026;-65
2022/08/07 01:14:19;;;;;;;3.17;1.90;;;;;;;-140.72;100.00;52443.63;5027788;28;20111;-66
2022/08/07 01:16:45;;;;;;;2.10;1.60;;;;;;;-140.72;100.00;52411.16;5027653;28;20479;-66
2022/08/07 01:19:11;;;;;;;3.13;2.03;;;;;;;-140.72;100.00;52411.16;5015159;28;20030;-66
2022/08/07 01:21:37;;;;;;;2.40;1.70;;;;;;;-140.72;100.00;52407.09;5015371;28;20030;-65
2022/08/07 01:24:03;;;;;;;3.30;2.00;;;;;;;-140.72;100.00;52433.47;5015455;28;20045;-65
2022/08/07 01:26:29;;;;;;;3.83;1.77;;;;;;;-140.72;100.00;52413.19;5028492;28;20021;-66
2022/08/07 01:28:55;;;;;;;3.33;2.45;;;;;;;-140.72;100.00;52415.22;5033136;28;20473;-66
2022/08/07 01:31:26;;;;;;;3.60;2.20;;;;;;;-140.72;100.00;52451.72;5026459;28;20056;-66
2022/08/07 01:33:52;;;;;;;3.70;2.63;;;;;;;-140.72;100.00;52459.84;5030613;28;20021;-66
2022/08/07 01:36:18;;;;;;;2.92;2.08;;;;;;;-140.72;100.00;52425.34;5033908;28;20104;-65
2022/08/07 01:38:44;;;;;;;3.17;2.22;;;;;;;-140.72;100.00;52425.34;5020622;28;20080;-65
2022/08/07 01:41:10;;;;;;;2.63;2.05;;;;;;;-140.72;100.00;52419.28;5033649;28;20056;-65
2022/08/07 01:43:36;;;;;;;2.90;1.80;;;;;;;-140.72;100.00;52427.38;5033687;28;20108;-65
2022/08/07 01:46:03;;;;;;;3.42;2.10;;;;;;;-140.72;100.00;52453.75;5032071;28;20085;-66
2022/08/07 01:48:28;;;;;;;3.42;2.45;;;;;;;-140.72;100.00;52451.72;5032376;28;20041;-66
2022/08/07 01:51:02;;;;;;;4.10;2.10;;;;;;;-140.72;100.00;52457.81;5032972;28;20025;-65
2022/08/07 01:53:31;;;;;;;4.03;2.47;;;;;;;-140.72;100.00;52453.75;5031094;28;20026;-65
2022/08/07 01:56:04;;;;;;;3.45;2.30;;;;;;;-140.72;100.00;52433.47;5019222;28;20037;-66
2022/08/07 01:58:33;;;;;;;2.67;1.80;;;;;;;-140.72;100.00;52439.56;5023249;28;20089;-66
2022/08/07 02:01:07;;;;;;;3.60;1.83;;;;;;;-140.72;100.00;52472.03;5031527;28;20033;-66
2022/08/07 02:03:34;;;;;;;2.78;1.95;;;;;;;-140.72;100.00;52443.63;5021390;28;20477;-67
2022/08/07 02:06:03;;;;;;;3.13;2.05;;;;;;;-140.72;100.00;52480.16;5033916;28;20052;-66
2022/08/07 02:08:34;;;;;;;3.85;2.50;;;;;;;-140.72;100.00;52451.72;5027658;28;20120;-67
2022/08/07 02:11:02;;;;;;;3.33;2.17;;;;;;;-140.72;100.00;52445.66;5026390;28;20022;-65
2022/08/07 02:13:31;;;;;;;4.50;2.40;;;;;;;-140.72;100.00;52445.66;5033580;28;20068;-66
2022/08/07 02:15:57;;;;;;;3.03;2.03;;;;;;;-140.72;100.00;52439.56;5031803;28;20037;-67
2022/08/07 02:18:27;;;;;;;3.80;2.42;;;;;;;-140.72;100.00;52470.00;5013778;28;20030;-65
2022/08/07 02:20:54;;;;;;;4.97;2.42;;;;;;;-140.72;100.00;52455.78;5026901;28;20028;-66
2022/08/07 02:23:20;;;;;;;3.88;2.55;;;;;;;-140.72;100.00;52453.75;5023913;28;20496;-65
2022/08/07 02:25:46;;;;;;;4.97;2.38;;;;;;;-140.72;100.00;52427.38;5028296;28;20025;-66
2022/08/07 02:28:13;;;;;;;3.40;2.38;;;;;;;-140.72;100.00;52445.66;5033720;28;20031;-66
2022/08/07 02:30:41;;;;;;;4.70;2.25;;;;;;;-140.72;100.00;52451.72;5028084;28;20021;-66
2022/08/07 02:33:08;;;;;;;3.47;2.45;;;;;;;-140.72;100.00;52455.78;5032139;28;20045;-65
2022/08/07 02:35:35;;;;;;;3.92;2.28;;;;;;;-140.72;100.00;52411.16;5027641;28;20029;-65
2022/08/07 02:38:03;;;;;;;2.78;2.20;;;;;;;-140.72;100.00;52439.56;5020301;28;20022;-66
2022/08/07 02:40:30;;;;;;;3.20;2.20;;;;;;;-140.72;100.00;52447.69;5026438;28;20072;-65
2022/08/07 02:42:57;;;;;;;3.65;2.63;;;;;;;-140.72;100.00;52455.78;5024553;28;20084;-67
2022/08/07 02:45:25;;;;;;;3.50;2.10;;;;;;;-140.72;100.00;52433.47;5032985;28;20052;-67
2022/08/07 02:47:51;;;;;;;3.75;2.35;;;;;;;-140.72;100.00;52496.38;5032830;28;20113;-67
2022/08/07 02:50:17;;;;;;;5.07;3.17;;;;;;;-140.72;100.00;52480.16;5032880;28;20030;-66
2022/08/07 02:52:53;;;;;;;3.50;2.40;;;;;;;-140.72;100.00;52447.69;5031487;28;20143;-66
2022/08/07 02:55:28;;;;;;;4.50;2.53;;;;;;;-140.72;100.00;52476.09;5014746;28;20033;-66
2022/08/07 02:57:57;;;;;;;2.85;2.30;;;;;;;-140.72;100.00;52463.91;5013487;28;20038;-67
2022/08/07 03:00:25;;;;;;;4.50;2.80;;;;;;;-140.72;100.00;52463.91;5033307;28;20410;-66
2022/08/07 03:02:51;;;;;;;4.60;3.40;;;;;;;-140.72;100.00;52451.72;5019612;28;20480;-65
2022/08/07 03:05:18;;;;;;;4.63;2.65;;;;;;;-140.72;100.00;52437.53;5030321;28;20444;-66
2022/08/07 03:07:46;;;;;;;5.78;2.95;;;;;;;-140.72;100.00;52439.56;5025126;28;20029;-66
2022/08/07 03:10:12;;;;;;;4.28;3.10;;;;;;;-140.72;100.00;52476.09;5020748;28;20037;-65
2022/08/07 03:12:39;;;;;;;4.72;3.50;;;;;;;-140.72;100.00;52461.88;5025838;28;20100;-66
2022/08/07 03:15:06;;;;;;;4.80;3.13;;;;;;;-140.72;100.00;52425.34;5026404;28;20402;-66
2022/08/07 03:17:32;;;;;;;4.15;2.80;;;;;;;-140.72;100.00;52508.56;5032500;28;20033;-66
2022/08/07 03:19:58;;;;;;;3.92;2.83;;;;;;;-140.72;100.00;52451.72;5018950;28;20120;-67
2022/08/07 03:22:24;;;;;;;4.85;2.78;;;;;;;-140.72;100.00;52459.84;5013221;28;20036;-65
2022/08/07 03:24:49;;;;;;;4.75;2.83;;;;;;;-140.72;100.00;52476.09;5026800;28;20208;-66
2022/08/07 03:27:16;;;;;;;3.92;2.95;;;;;;;-140.72;100.00;52465.94;5032166;28;20057;-66
2022/08/07 03:29:47;;;;;;;4.43;3.10;;;;;;;-140.72;100.00;52474.06;5032260;28;20026;-66
2022/08/07 03:32:16;;;;;;;4.85;2.63;;;;;;;-140.72;100.00;52457.81;5030013;28;20053;-66
2022/08/07 03:34:43;;;;;;;4.22;2.90;;;;;;;-140.72;100.00;52439.56;5019041;28;20110;-65
2022/08/07 03:37:10;;;;;;;3.97;2.47;;;;;;;-140.72;100.00;52490.28;5032627;28;20040;-66
2022/08/07 03:39:37;;;;;;;5.13;2.60;;;;;;;-140.72;100.00;52508.56;5032147;28;20033;-66
2022/08/07 03:42:05;;;;;;;4.05;3.03;;;;;;;-140.72;100.00;52476.09;5025319;28;20412;-66
2022/08/07 03:44:33;;;;;;;4.40;3.20;;;;;;;-140.72;100.00;52457.81;5026100;28;20017;-66
2022/08/07 03:46:59;;;;;;;6.60;4.20;;;;;;;-140.72;100.00;52476.09;5031412;28;20377;-66
2022/08/07 03:49:26;;;;;;;5.32;3.50;;;;;;;-140.72;100.00;52457.81;5017490;28;20033;-66
2022/08/07 03:51:52;;;;;;;4.50;3.55;;;;;;;-140.72;100.00;52490.28;5023511;28;20041;-66
2022/08/07 03:54:17;;;;;;;5.82;3.90;;;;;;;-140.72;100.00;52500.44;5027875;28;20021;-66
2022/08/07 03:56:45;;;;;;;6.10;4.00;;;;;;;-140.72;100.00;52500.44;5023279;28;20108;-66
2022/08/07 03:59:12;;;;;;;4.78;3.40;;;;;;;-140.72;100.00;52490.28;5042154;28;20109;-65
2022/08/07 04:01:42;;;;;;;5.25;3.53;;;;;;;-140.72;100.00;52480.16;5031856;28;20484;-66
2022/08/07 04:04:08;;;;;;;4.57;3.35;;;;;;;-140.72;100.00;52530.88;5026200;28;20038;-66
2022/08/07 04:06:36;;;;;;;5.18;3.63;;;;;;;-140.72;100.00;52474.06;5022441;28;20029;-66
2022/08/07 04:09:02;;;;;;;6.13;3.90;;;;;;;-140.72;100.00;52463.91;5018442;28;20100;-66
2022/08/07 04:11:28;;;;;;;5.22;3.90;;;;;;;-140.72;100.00;52476.09;5030949;28;20040;-66
2022/08/07 04:13:54;;;;;;;7.15;4.63;;;;;;;-140.72;100.00;52500.44;5018200;28;20037;-66
2022/08/07 04:16:20;;;;;;;6.60;4.40;;;;;;;-140.72;100.00;52480.16;5021208;28;20145;-66
2022/08/07 04:18:46;;;;;;;4.90;3.97;;;;;;;-140.72;100.00;52486.22;5013617;28;20516;-65
2022/08/07 04:21:11;;;;;;;4.35;3.58;;;;;;;-140.72;100.00;52484.19;5023890;28;20449;-65
2022/08/07 04:23:37;;;;;;;7.88;3.55;;;;;;;-140.72;100.00;52457.81;5024686;28;20157;-66
2022/08/07 04:26:06;;;;;;;5.45;3.78;;;;;;;-140.72;100.00;52465.94;5023193;28;20029;-66
2022/08/07 04:28:31;;;;;;;7.32;4.10;;;;;;;-140.72;100.00;52520.72;5013685;28;20026;-66
2022/08/07 04:30:57;;;;;;;5.68;4.30;;;;;;;-140.72;100.00;52500.44;5012990;28;20041;-66
2022/08/07 04:33:23;;;;;;;5.60;3.67;;;;;;;-140.72;100.00;52463.91;5026832;28;20042;-66
2022/08/07 04:35:49;;;;;;;5.70;4.30;;;;;;;-140.72;100.00;52453.75;5012234;28;20099;-66
2022/08/07 04:38:14;;;;;;;7.35;3.70;;;;;;;-140.72;100.00;52500.44;5020670;28;20392;-66
2022/08/07 04:40:43;;;;;;;5.47;3.80;;;;;;;-140.72;100.00;52492.31;5032930;28;20051;-66
2022/08/07 04:43:09;;;;;;;4.75;3.22;;;;;;;-140.72;100.00;52488.25;5034810;28;20025;-66
2022/08/07 04:46:28;;;;;;;6.72;4.00;;;;;;;-140.72;100.00;52465.94;5021876;28;20018;-66
2022/08/07 04:49:04;;;;;;;4.50;3.80;;;;;;;-140.72;100.00;52437.53;4996247;28;20383;-66
2022/08/07 04:51:58;;;;;;;6.85;4.22;;;;;;;-140.72;100.00;52492.31;5018209;28;20124;-66
2022/08/07 04:54:30;;;;;;;8.32;3.78;;;;;;;-140.72;100.00;52508.56;5018173;28;20080;-66
2022/08/07 04:57:05;;;;;;;7.03;4.03;;;;;;;-140.72;100.00;52474.06;5026083;28;20121;-66
2022/08/07 04:59:54;;;;;;;6.03;3.05;;;;;;;-140.72;100.00;52455.78;5014481;28;20026;-66
2022/08/07 05:02:34;;;;;;;5.20;3.28;;;;;;;-140.72;100.00;52463.91;5030762;28;20029;-66
2022/08/07 05:05:35;;;;;;;5.38;3.42;;;;;;;-140.72;100.00;52451.72;5034400;28;20029;-66
2022/08/07 05:08:11;;;;;;;6.57;4.20;;;;;;;-140.72;100.00;52451.72;5024220;28;20029;-66
2022/08/07 05:10:40;;;;;;;5.03;3.42;;;;;;;-140.72;100.00;52484.19;5029846;28;20044;-66
2022/08/07 05:13:16;;;;;;;4.82;3.75;;;;;;;-140.72;100.00;52465.94;5024667;28;20116;-65
2022/08/07 05:15:48;;;;;;;6.60;3.72;;;;;;;-140.72;100.00;52492.31;5021336;28;20326;-66
2022/08/07 05:18:26;;;;;;;6.43;4.30;;;;;;;-140.72;100.00;52490.28;5030294;28;20462;-66
2022/08/07 05:21:08;;;;;;;8.23;4.32;;;;;;;-140.72;100.00;52482.16;5026220;28;20122;-67
2022/08/07 05:23:48;;;;;;;6.50;4.15;;;;;;;-140.72;100.00;52472.03;5035937;28;20071;-67
2022/08/07 05:26:17;;;;;;;7.70;4.13;;;;;;;-140.72;100.00;52496.38;5027369;28;20034;-71
2022/08/07 05:28:45;;;;;;;4.75;3.80;;;;;;;-140.72;100.00;52437.53;5027545;28;20533;-70
2022/08/07 05:31:12;;;;;;;5.55;3.90;;;;;;;-140.72;100.00;52431.44;5031808;28;20045;-71
2022/08/07 05:33:39;;;;;;;7.97;4.50;;;;;;;-140.72;100.00;52443.63;5033583;28;20563;-72
2022/08/07 05:36:07;;;;;;;6.10;4.05;;;;;;;-140.72;100.00;52457.81;5020609;28;20056;-69
2022/08/07 05:38:33;;;;;;;6.03;3.83;;;;;;;-140.72;100.00;52429.41;5019154;28;20053;-73
2022/08/07 05:41:00;;;;;;;5.57;4.22;;;;;;;-140.72;100.00;52455.78;5016170;28;20021;-70
2022/08/07 05:43:26;;;;;;;5.20;3.35;;;;;;;-140.72;100.00;52459.84;5013129;28;20030;-70
2022/08/07 05:45:51;;;;;;;6.28;3.88;;;;;;;-140.72;100.00;52435.50;5014594;28;20116;-72
2022/08/07 05:48:18;;;;;;;5.82;3.45;;;;;;;-140.72;100.00;52423.31;5032434;28;20128;-71
2022/08/07 05:50:54;;;;;;;7.95;3.65;;;;;;;-140.72;100.00;52423.31;5022131;28;20048;-68
2022/08/07 05:53:19;;;;;;;5.13;3.67;;;;;;;-140.72;100.00;52455.78;5032857;28;20064;-71
2022/08/07 05:55:45;;;;;;;11.48;4.45;;;;;;;-140.72;100.00;52407.09;5031898;28;20053;-70
2022/08/07 05:58:12;;;;;;;7.88;4.65;;;;;;;-140.72;100.00;52457.81;5033036;28;20029;-70
2022/08/07 06:00:38;;;;;;;6.05;3.80;;;;;;;-140.72;100.00;52421.28;5031973;28;20033;-69
2022/08/07 06:03:08;;;;;;;6.30;4.28;;;;;;;-140.72;100.00;52427.38;5044239;28;20032;-70
2022/08/07 06:05:34;;;;;;;7.35;3.70;;;;;;;-140.72;100.00;52429.41;5030361;28;20048;-73
2022/08/07 06:08:00;;;;;;;4.72;3.35;;;;;;;-140.72;100.00;52431.44;5031825;28;20481;-71
2022/08/07 06:10:27;;;;;;;5.32;3.50;;;;;;;-140.72;100.00;52415.22;5031512;28;20029;-71
2022/08/07 06:12:53;;;;;;;6.55;4.40;;;;;;;-140.72;100.00;52437.53;5033147;28;20377;-70
2022/08/07 06:15:19;;;;;;;7.30;3.88;;;;;;;-140.72;100.00;52433.47;5018896;28;20033;-70
2022/08/07 06:17:45;;;;;;;7.20;3.38;;;;;;;-140.72;100.00;52407.09;5033235;28;20033;-70
2022/08/07 06:20:11;;;;;;;4.60;3.20;;;;;;;-140.72;100.00;52415.22;5018379;28;20033;-69
2022/08/07 06:22:39;;;;;;;4.07;3.00;;;;;;;-140.72;100.00;52411.16;5022923;28;20497;-70
2022/08/07 06:25:05;;;;;;;5.00;2.92;;;;;;;-140.72;100.00;52388.84;5021877;28;20022;-70
2022/08/07 06:27:31;;;;;;;4.38;2.83;;;;;;;-140.72;100.00;52419.28;5024736;28;20026;-70
2022/08/07 06:29:56;;;;;;;4.28;2.38;;;;;;;-140.72;100.00;52366.50;5042316;28;20122;-74
2022/08/07 06:32:21;;;;;;;3.33;1.73;;;;;;;-140.72;100.00;52437.53;5047051;28;20056;-69
2022/08/07 06:34:47;;;;;;;4.35;2.30;;;;;;;-140.72;100.00;52374.63;5036493;28;20554;-70
2022/08/07 06:37:12;;;;;;;3.65;2.47;;;;;;;-140.72;100.00;52407.09;5023107;28;20117;-70
2022/08/07 06:39:38;;;;;;;3.55;2.60;;;;;;;-140.72;100.00;52390.84;5013753;28;20064;-72
2022/08/07 06:42:11;;;;;;;3.53;2.53;;;;;;;-140.72;100.00;52376.66;5018946;28;20166;-73
2022/08/07 06:44:38;;;;;;;4.82;2.67;;;;;;;-140.72;100.00;52358.41;5030518;28;20056;-72
2022/08/07 06:47:07;;;;;;;5.38;2.85;;;;;;;-140.72;100.00;52372.59;5019903;28;20029;-70
2022/08/07 06:49:33;;;;;;;3.55;2.05;;;;;;;-140.72;100.00;52394.91;5031041;28;20033;-71
2022/08/07 06:52:00;;;;;;;4.57;2.85;;;;;;;-140.72;100.00;52332.03;5032205;28;20022;-71
2022/08/07 06:54:27;;;;;;;3.58;2.17;;;;;;;-140.72;100.00;52348.25;5019537;28;20049;-71
2022/08/07 06:56:54;;;;;;;3.45;2.20;;;;;;;-140.72;100.00;52388.84;5030336;28;20033;-70
2022/08/07 06:59:22;;;;;;;5.55;2.47;;;;;;;-140.72;100.00;52354.34;5029601;28;20392;-71
2022/08/07 07:01:49;;;;;;;3.35;2.40;;;;;;;-140.72;100.00;52350.28;5031414;28;20032;-69
2022/08/07 07:04:15;;;;;;;4.35;3.22;;;;;;;-140.72;100.00;52364.47;5014417;28;20452;-71
2022/08/07 07:06:40;;;;;;;3.38;2.30;;;;;;;-140.72;100.00;52390.84;5021616;28;20120;-70
2022/08/07 07:09:26;;;;;;;4.72;2.72;;;;;;;-140.72;100.00;52374.63;5030234;28;20149;-71
2022/08/07 07:12:21;;;;;;;4.15;3.08;;;;;;;-140.72;100.00;52366.50;5017681;28;20018;-70
2022/08/07 07:15:00;;;;;;;5.72;2.83;;;;;;;-140.72;100.00;52358.41;5031696;28;20067;-70
2022/08/07 07:17:33;;;;;;;4.18;2.95;;;;;;;-140.72;100.00;52354.34;5031292;28;20100;-70
2022/08/07 07:20:01;;;;;;;3.50;2.50;;;;;;;-140.72;96.26;52370.56;5019252;28;20097;-72
2022/08/07 07:22:28;;;;;;;4.25;2.75;;;;;;;-140.72;95.59;52299.56;5031668;28;20042;-73
2022/08/07 07:24:55;;;;;;;4.30;2.83;;;;;;;-140.72;96.29;52364.47;5029704;28;20120;-71
2022/08/07 07:27:25;;;;;;;5.65;3.25;;;;;;;-140.72;98.81;52334.03;5031859;28;20048;-71
2022/08/07 07:29:55;;;;;;;6.47;2.95;;;;;;;-140.72;100.00;52338.09;5030673;28;20048;-71
2022/08/07 07:32:22;;;;;;;4.53;2.65;;;;;;;-140.72;97.75;52346.22;5021816;28;20116;-71
2022/08/07 07:34:52;;;;;;;4.35;2.72;;;;;;;-140.72;94.46;52350.28;5026415;28;20128;-71
2022/08/07 07:37:19;;;;;;;4.50;2.40;;;;;;;-140.72;90.90;52348.25;5022020;28;20029;-71
2022/08/07 07:39:47;;;;;;;3.95;2.75;;;;;;;-140.72;93.78;52348.25;5030013;28;20021;-72
2022/08/07 07:42:15;;;;;;;4.15;2.45;;;;;;;-140.72;88.94;52340.13;5022338;28;20030;-71
2022/08/07 07:44:44;;;;;;;4.38;2.75;;;;;;;-140.72;77.29;52370.56;5023213;28;20116;-71
2022/08/07 07:47:13;;;;;;;3.72;2.28;;;;;;;-140.72;71.17;52346.22;5012315;28;20033;-72
2022/08/07 07:49:39;;;;;;;3.55;2.28;;;;;;;-140.72;64.79;52338.09;5027774;28;20021;-72
2022/08/07 07:52:07;;;;;;;3.70;2.22;;;;;;;-140.72;56.50;52297.53;5030079;28;20406;-71
2022/08/07 07:54:34;;;;;;;3.45;2.22;;;;;;;-140.72;52.59;52317.81;5031773;28;20029;-72
2022/08/07 07:57:01;;;;;;;2.40;1.63;;;;;;;-140.72;47.48;52323.91;5032486;28;20038;-72
2022/08/07 07:59:29;;;;;;;4.25;2.50;;;;;;;-140.72;46.63;52279.25;5031089;28;20048;-71
2022/08/07 08:01:55;;;;;;;2.80;1.80;;;;;;;-140.72;44.29;52287.38;5027142;28;20030;-71
2022/08/07 08:04:23;;;;;;;4.15;2.22;;;;;;;-140.72;36.62;52323.91;5028905;28;20030;-71
2022/08/07 08:06:49;;;;;;;3.65;1.55;;;;;;;-140.72;38.47;52267.09;5026154;28;20057;-70
2022/08/07 08:09:19;;;;;;;2.13;1.48;;;;;;;-140.72;32.33;52258.97;5026126;28;20136;-72
2022/08/07 08:11:44;;;;;;;;;;;;;;;-140.72;23.18;52261.00;5031685;28;20072;-73
2022/08/07 08:14:10;;;;;;;2.33;1.55;;;;;;;-140.72;23.29;52281.28;5027722;28;20337;-74
2022/08/07 08:16:42;;;;;;;2.45;1.63;;;;;;;-140.72;17.77;52256.94;5029321;28;20030;-73
2022/08/07 08:19:12;;;;;;;2.03;1.25;;;;;;;-140.72;5.88;52254.91;5029007;28;20130;-76
2022/08/07 08:27:14;;;;;;;2.35;1.40;;;;;;;-140.72;0.00;52192.00;5031278;28;20102;-74
2022/08/07 08:29:42;;;;;;;1.95;1.40;;;;;;;-140.72;0.00;52216.34;5030401;28;20104;-72
2022/08/07 08:32:14;;;;;;;5.20;1.83;;;;;;;-140.72;0.00;52204.19;5035181;28;20343;-69
2022/08/07 08:34:50;;;;;;;3.53;1.67;;;;;;;-140.72;0.00;52185.94;5025680;28;20140;-73
2022/08/07 08:37:18;;;;;;;2.30;1.30;;;;;;;-140.72;0.00;52198.09;5029733;28;20041;-71
2022/08/07 08:39:45;;;;;;;2.88;1.50;;;;;;;-140.72;0.00;52187.97;5027913;28;20030;-73
2022/08/07 08:43:08;;;;;;;3.95;1.85;;;;;;;-140.72;0.00;52224.47;5033718;28;20116;-70
2022/08/07 08:45:50;;;;;;;2.78;1.67;;;;;;;-140.72;0.00;52192.00;4991168;28;20038;-71
2022/08/07 08:48:33;;;;;;;2.13;1.38;;;;;;;-140.72;0.00;52183.91;4990872;28;20030;-71
2022/08/07 08:51:15;;;;;;;3.13;1.50;;;;;;;-140.72;0.00;52116.94;5019213;28;20323;-70
2022/08/07 08:53:51;;;;;;;1.50;0.95;;;;;;;-140.72;0.00;52151.44;5028322;28;20022;-69
2022/08/07 08:56:37;;;;;;;1.77;1.00;;;;;;;-140.72;0.00;52137.22;5027733;28;20539;-72
2022/08/07 08:59:21;;;;;;;2.17;1.20;;;;;;;-140.72;0.00;52110.84;5031372;28;20393;-70
2022/08/07 09:02:24;;;;;;;1.25;0.73;;;;;;;-140.72;0.00;52123.03;5029947;28;20045;-72
2022/08/07 09:05:08;;;;;;;1.13;0.80;;;;;;;-140.72;0.00;52070.28;5022594;28;20488;-71
2022/08/07 09:07:59;;;;;;;1.48;0.90;;;;;;;-140.72;0.00;52035.78;5026771;28;20207;-69
2022/08/07 09:10:36;;;;;;;1.80;0.80;;;;;;;-140.72;0.00;52019.56;5037472;28;20108;-71
2022/08/07 09:13:45;;;;;;;1.90;1.05;;;;;;;-140.72;0.00;52023.59;5038902;28;20030;-69
2022/08/07 09:16:13;;;;;;;2.33;1.15;;;;;;;-140.72;0.00;52035.78;5026214;28;20472;-68
2022/08/07 09:18:54;;;;;;;2.25;1.25;;;;;;;-140.72;0.00;52021.56;5031724;28;20056;-69
2022/08/07 09:21:38;;;;;;;2.20;1.20;;;;;;;-140.72;0.00;52015.50;5033390;28;20025;-70
2022/08/07 09:24:36;;;;;;;1.23;0.80;;;;;;;-140.72;0.00;52007.38;5034991;28;20488;-70
2022/08/07 09:27:21;;;;;;;1.83;0.95;;;;;;;-140.72;0.00;51991.16;5021290;28;20041;-70
2022/08/07 09:29:47;;;;;;;0.98;0.70;;;;;;;-140.72;0.00;51985.06;5033005;28;20033;-73
2022/08/07 09:32:35;;;;;;;2.10;0.90;;;;;;;-140.72;0.00;52009.41;5031976;28;20083;-75
2022/08/07 09:35:01;;;;;;;2.10;1.07;;;;;;;-140.72;0.00;51924.19;5028072;28;20359;-73
2022/08/07 09:37:36;;;;;;;1.73;0.68;;;;;;;-140.72;0.00;51989.13;5034186;28;20071;-72
2022/08/07 09:40:45;;;;;;;2.25;0.98;;;;;;;-140.72;0.00;51983.03;5033942;28;20025;-75
2022/08/07 09:43:32;;;;;;;1.33;0.55;;;;;;;-140.72;0.00;51916.06;5030392;28;20026;-75
2022/08/07 09:46:26;;;;;;;1.45;0.73;;;;;;;-140.72;0.00;51875.50;5036671;28;20033;-70
2022/08/07 09:48:54;;;;;;;1.10;0.65;;;;;;;-140.72;0.00;51912.03;5039717;28;20021;-71
2022/08/07 09:51:47;;;;;;;1.30;0.65;;;;;;;-140.72;0.00;51907.97;5033268;28;20033;-73
2022/08/07 09:54:19;;;;;;;2.85;1.10;;;;;;;-140.72;0.00;51863.31;5034365;28;20400;-72
2022/08/07 09:56:50;;;;;;;1.77;0.70;;;;;;;-140.72;0.00;51826.81;5032679;28;20144;-71
2022/08/07 09:59:37;;;;;;;1.33;0.50;;;;;;;-140.72;0.00;51814.63;5032726;28;20029;-73
2022/08/07 10:02:36;;;;;;;1.52;0.85;;;;;;;-140.72;0.00;51802.47;5028824;28;20061;-73
2022/08/07 10:05:24;;;;;;;;;;;;;;;-140.72;0.00;51824.78;5032070;28;20041;-78
2022/08/07 10:08:22;;;;;;;1.90;0.70;;;;;;;-140.72;0.00;51810.56;5025075;28;19917;-72
2022/08/07 10:10:50;;;;;;;1.75;0.70;;;;;;;-140.72;0.00;51774.06;5017836;28;20105;-72
2022/08/07 10:13:36;;;;;;;1.77;0.70;;;;;;;-140.72;0.00;51729.44;5031072;28;20034;-73
2022/08/07 10:16:10;;;;;;;1.08;0.50;;;;;;;-140.72;0.00;51753.78;5031448;28;20044;-73
2022/08/07 10:19:20;;;;;;;1.08;0.52;;;;;;;-140.72;0.00;51715.22;5028327;28;20048;-73
2022/08/07 10:22:04;;;;;;;1.17;0.60;;;;;;;-140.72;0.00;51739.56;5036193;28;20476;-72
2022/08/07 10:24:39;;;;;;;2.42;0.65;;;;;;;-140.72;0.00;51705.06;5036627;28;20025;-73
2022/08/07 10:27:44;;;;;;;0.93;0.38;;;;;;;-140.72;0.00;51696.97;5036636;28;20079;-76
2022/08/07 10:30:17;;;;;;;3.45;0.73;;;;;;;-140.72;0.00;51778.13;5028947;28;20477;-72
2022/08/07 10:32:55;;;;;;;0.95;0.50;;;;;;;-140.72;0.00;51737.53;5030032;28;20061;-75
2022/08/07 10:35:29;;;;;;;1.00;0.52;;;;;;;-140.72;0.00;51694.94;5028007;28;20498;-75
2022/08/07 10:38:13;;;;;;;1.60;0.63;;;;;;;-140.72;0.00;51727.41;5030342;28;20040;-72
2022/08/07 10:40:51;;;;;;;1.45;0.63;;;;;;;-140.72;0.00;51672.63;5020849;28;20063;-67
2022/08/07 10:43:28;;;;;;;1.25;0.50;;;;;;;-140.72;0.00;51660.44;5029869;28;20089;-69
2022/08/07 10:46:18;;;;;;;1.55;0.70;;;;;;;-140.72;0.00;51688.84;5030356;28;20025;-68
2022/08/07 10:48:50;;;;;;;1.88;0.38;;;;;;;-140.72;0.00;51589.44;5022445;28;20541;-68
2022/08/07 10:51:35;;;;;;;1.20;0.35;;;;;;;-140.72;0.00;51615.81;5035731;28;20025;-68
2022/08/07 10:54:07;;;;;;;1.38;0.30;;;;;;;-140.72;0.00;51652.34;5023529;28;20053;-67
2022/08/07 10:56:57;;;;;;;0.90;0.38;;;;;;;-140.72;0.00;51632.03;5021405;28;20045;-69
2022/08/07 10:59:34;;;;;;;1.38;0.55;;;;;;;-140.72;0.00;51599.59;5029986;28;20080;-67
2022/08/07 11:02:35;;;;;;;0.95;0.55;;;;;;;-140.72;0.00;51575.25;5027693;28;20040;-68
2022/08/07 11:05:31;;;;;;;1.20;0.50;;;;;;;-140.72;0.00;51601.63;5020157;28;20052;-69
2022/08/07 11:08:15;;;;;;;1.80;0.68;;;;;;;-140.72;0.00;51640.16;5012206;28;20037;-68
2022/08/07 11:10:58;;;;;;;0.95;0.38;;;;;;;-140.72;0.00;51607.69;5021790;28;20025;-67
2022/08/07 11:13:32;;;;;;;1.40;0.70;;;;;;;-140.72;0.00;51609.72;5022277;28;20460;-68
2022/08/07 11:16:07;;;;;;;1.02;0.28;;;;;;;-140.72;0.00;51496.13;5032344;28;20052;-66
2022/08/07 11:18:48;;;;;;;1.15;0.40;;;;;;;-140.72;0.00;51502.22;5030529;28;20080;-69
2022/08/07 11:21:36;;;;;;;0.98;0.50;;;;;;;-140.72;0.00;51469.75;5033619;28;20112;-68
2022/08/07 11:24:21;;;;;;;0.70;0.40;;;;;;;-140.72;0.00;51548.88;5031657;28;20102;-68
2022/08/07 11:27:00;;;;;;;0.82;0.32;;;;;;;-140.72;0.00;51565.09;5033395;28;20029;-68
2022/08/07 11:29:37;;;;;;;2.30;0.40;;;;;;;-140.72;0.00;51506.25;5030602;28;20183;-69
2022/08/07 11:32:06;;;;;;;1.40;0.47;;;;;;;-140.72;0.00;51532.63;5033925;28;20049;-68
2022/08/07 11:34:53;;;;;;;1.05;0.55;;;;;;;-140.72;0.00;51518.44;5033071;28;20076;-68
2022/08/07 11:37:53;;;;;;;1.02;0.52;;;;;;;-140.72;0.00;51506.25;5047004;28;20059;-68
2022/08/07 11:40:38;;;;;;;1.10;0.45;;;;;;;-140.72;0.00;51496.13;4999801;28;20056;-68
2022/08/07 11:43:18;;;;;;;0.93;0.50;;;;;;;-140.72;0.00;51496.13;5031473;28;20099;-68